sensor_id;sensor_type;location;lat;lon;timestamp;temperature;humidity
44461;DHT22;30162;53.642;10.640;2023-04-03T00:01:12;4.40;88.90
44461;DHT22;30162;53.642;10.640;2023-04-03T00:03:37;4.40;89.50
44461;DHT22;30162;53.642;10.640;2023-04-03T00:06:03;4.50;89.60
44461;DHT22;30162;53.642;10.640;2023-04-03T00:08:29;4.50;89.10
44461;DHT22;30162;53.642;10.640;2023-04-03T00:10:58;4.50;89.10
44461;DHT22;30162;53.642;10.640;2023-04-03T00:13:24;4.40;89.10
44461;DHT22;30162;53.642;10.640;2023-04-03T00:15:50;4.30;89.10
44461;DHT22;30162;53.642;10.640;2023-04-03T00:18:16;4.10;89.20
44461;DHT22;30162;53.642;10.640;2023-04-03T00:20:42;4.10;89.20
44461;DHT22;30162;53.642;10.640;2023-04-03T00:23:07;4.10;89.60
44461;DHT22;30162;53.642;10.640;2023-04-03T00:25:33;4.00;89.40
44461;DHT22;30162;53.642;10.640;2023-04-03T00:27:58;3.80;90.00
44461;DHT22;30162;53.642;10.640;2023-04-03T00:30:24;3.80;90.60
44461;DHT22;30162;53.642;10.640;2023-04-03T00:32:51;3.90;90.60
44461;DHT22;30162;53.642;10.640;2023-04-03T00:35:17;4.00;90.40
44461;DHT22;30162;53.642;10.640;2023-04-03T00:37:44;4.10;90.40
44461;DHT22;30162;53.642;10.640;2023-04-03T00:40:10;4.10;90.30
44461;DHT22;30162;53.642;10.640;2023-04-03T00:42:38;4.00;90.30
44461;DHT22;30162;53.642;10.640;2023-04-03T00:47:30;3.70;90.20
44461;DHT22;30162;53.642;10.640;2023-04-03T00:49:56;3.60;90.70
44461;DHT22;30162;53.642;10.640;2023-04-03T00:52:26;3.60;90.90
44461;DHT22;30162;53.642;10.640;2023-04-03T00:54:56;3.60;90.60
44461;DHT22;30162;53.642;10.640;2023-04-03T00:57:23;3.60;90.90
44461;DHT22;30162;53.642;10.640;2023-04-03T00:59:51;3.70;91.00
44461;DHT22;30162;53.642;10.640;2023-04-03T01:02:18;3.70;90.70
44461;DHT22;30162;53.642;10.640;2023-04-03T01:04:44;3.70;90.80
44461;DHT22;30162;53.642;10.640;2023-04-03T01:07:15;3.60;90.90
44461;DHT22;30162;53.642;10.640;2023-04-03T01:09:42;3.60;91.00
44461;DHT22;30162;53.642;10.640;2023-04-03T01:12:23;3.50;90.80
44461;DHT22;30162;53.642;10.640;2023-04-03T01:14:52;3.50;91.20
44461;DHT22;30162;53.642;10.640;2023-04-03T01:17:26;3.60;91.30
44461;DHT22;30162;53.642;10.640;2023-04-03T01:20:02;3.70;91.10
44461;DHT22;30162;53.642;10.640;2023-04-03T01:25:14;3.50;90.80
44461;DHT22;30162;53.642;10.640;2023-04-03T01:27:39;3.40;91.00
44461;DHT22;30162;53.642;10.640;2023-04-03T01:30:06;3.30;91.10
44461;DHT22;30162;53.642;10.640;2023-04-03T01:32:32;3.30;91.40
44461;DHT22;30162;53.642;10.640;2023-04-03T01:34:57;3.20;91.50
44461;DHT22;30162;53.642;10.640;2023-04-03T01:37:23;3.10;91.60
44461;DHT22;30162;53.642;10.640;2023-04-03T01:39:48;3.30;91.80
44461;DHT22;30162;53.642;10.640;2023-04-03T01:42:14;3.50;91.50
44461;DHT22;30162;53.642;10.640;2023-04-03T01:44:41;3.40;91.50
44461;DHT22;30162;53.642;10.640;2023-04-03T01:47:07;3.50;91.40
44461;DHT22;30162;53.642;10.640;2023-04-03T01:49:32;3.60;91.30
44461;DHT22;30162;53.642;10.640;2023-04-03T01:51:58;3.70;91.20
44461;DHT22;30162;53.642;10.640;2023-04-03T01:54:23;3.70;91.00
44461;DHT22;30162;53.642;10.640;2023-04-03T01:56:49;3.60;91.10
44461;DHT22;30162;53.642;10.640;2023-04-03T01:59:15;3.70;91.10
44461;DHT22;30162;53.642;10.640;2023-04-03T02:01:42;3.50;90.80
44461;DHT22;30162;53.642;10.640;2023-04-03T02:04:09;3.50;91.30
44461;DHT22;30162;53.642;10.640;2023-04-03T02:06:34;3.50;91.20
44461;DHT22;30162;53.642;10.640;2023-04-03T02:09:00;3.60;91.20
44461;DHT22;30162;53.642;10.640;2023-04-03T02:11:25;3.70;91.10
44461;DHT22;30162;53.642;10.640;2023-04-03T02:13:51;3.70;91.10
44461;DHT22;30162;53.642;10.640;2023-04-03T02:16:17;3.70;91.10
44461;DHT22;30162;53.642;10.640;2023-04-03T02:18:43;3.70;91.10
44461;DHT22;30162;53.642;10.640;2023-04-03T02:21:09;3.70;91.10
44461;DHT22;30162;53.642;10.640;2023-04-03T02:23:34;3.70;91.00
44461;DHT22;30162;53.642;10.640;2023-04-03T02:26:04;3.70;91.00
44461;DHT22;30162;53.642;10.640;2023-04-03T02:28:30;3.70;91.00
44461;DHT22;30162;53.642;10.640;2023-04-03T02:30:55;3.80;90.90
44461;DHT22;30162;53.642;10.640;2023-04-03T02:33:20;3.80;90.80
44461;DHT22;30162;53.642;10.640;2023-04-03T02:35:46;3.80;90.80
44461;DHT22;30162;53.642;10.640;2023-04-03T02:38:18;3.70;90.80
44461;DHT22;30162;53.642;10.640;2023-04-03T02:40:44;3.80;90.90
44461;DHT22;30162;53.642;10.640;2023-04-03T02:43:09;3.80;90.80
44461;DHT22;30162;53.642;10.640;2023-04-03T02:45:35;3.80;90.90
44461;DHT22;30162;53.642;10.640;2023-04-03T02:48:01;3.70;90.90
44461;DHT22;30162;53.642;10.640;2023-04-03T02:50:26;3.70;91.00
44461;DHT22;30162;53.642;10.640;2023-04-03T02:52:52;3.70;91.00
44461;DHT22;30162;53.642;10.640;2023-04-03T02:55:17;3.70;91.00
44461;DHT22;30162;53.642;10.640;2023-04-03T02:57:43;3.70;91.00
44461;DHT22;30162;53.642;10.640;2023-04-03T03:00:09;3.70;91.00
44461;DHT22;30162;53.642;10.640;2023-04-03T03:02:35;3.70;90.90
44461;DHT22;30162;53.642;10.640;2023-04-03T03:05:01;3.70;91.10
44461;DHT22;30162;53.642;10.640;2023-04-03T03:07:26;3.70;91.00
44461;DHT22;30162;53.642;10.640;2023-04-03T03:09:52;3.70;91.10
44461;DHT22;30162;53.642;10.640;2023-04-03T03:12:17;3.70;91.00
44461;DHT22;30162;53.642;10.640;2023-04-03T03:14:49;3.70;91.00
44461;DHT22;30162;53.642;10.640;2023-04-03T03:17:15;3.70;91.10
44461;DHT22;30162;53.642;10.640;2023-04-03T03:19:41;3.70;91.10
44461;DHT22;30162;53.642;10.640;2023-04-03T03:22:06;3.70;91.10
44461;DHT22;30162;53.642;10.640;2023-04-03T03:24:32;3.70;91.00
44461;DHT22;30162;53.642;10.640;2023-04-03T03:26:57;3.70;91.10
44461;DHT22;30162;53.642;10.640;2023-04-03T03:29:23;3.70;91.10
44461;DHT22;30162;53.642;10.640;2023-04-03T03:31:48;3.60;91.10
44461;DHT22;30162;53.642;10.640;2023-04-03T03:34:14;3.50;90.90
44461;DHT22;30162;53.642;10.640;2023-04-03T03:36:40;3.50;91.10
44461;DHT22;30162;53.642;10.640;2023-04-03T03:39:06;3.50;91.10
44461;DHT22;30162;53.642;10.640;2023-04-03T03:41:32;3.40;91.20
44461;DHT22;30162;53.642;10.640;2023-04-03T03:43:57;3.50;91.20
44461;DHT22;30162;53.642;10.640;2023-04-03T03:46:23;3.40;91.20
44461;DHT22;30162;53.642;10.640;2023-04-03T03:48:48;3.40;91.30
44461;DHT22;30162;53.642;10.640;2023-04-03T03:51:14;3.40;91.20
44461;DHT22;30162;53.642;10.640;2023-04-03T03:53:40;3.20;91.10
44461;DHT22;30162;53.642;10.640;2023-04-03T03:56:06;3.20;91.40
44461;DHT22;30162;53.642;10.640;2023-04-03T03:58:32;3.30;91.40
44461;DHT22;30162;53.642;10.640;2023-04-03T04:01:03;3.30;91.40
44461;DHT22;30162;53.642;10.640;2023-04-03T04:03:28;3.30;91.40
44461;DHT22;30162;53.642;10.640;2023-04-03T04:05:54;3.20;91.40
44461;DHT22;30162;53.642;10.640;2023-04-03T04:08:20;3.20;91.20
44461;DHT22;30162;53.642;10.640;2023-04-03T04:10:45;3.20;91.40
44461;DHT22;30162;53.642;10.640;2023-04-03T04:13:11;3.00;91.30
44461;DHT22;30162;53.642;10.640;2023-04-03T04:15:36;3.00;91.50
44461;DHT22;30162;53.642;10.640;2023-04-03T04:18:02;2.90;91.50
44461;DHT22;30162;53.642;10.640;2023-04-03T04:20:27;2.80;91.40
44461;DHT22;30162;53.642;10.640;2023-04-03T04:22:53;2.70;91.80
44461;DHT22;30162;53.642;10.640;2023-04-03T04:25:18;2.80;91.80
44461;DHT22;30162;53.642;10.640;2023-04-03T04:27:44;2.90;91.80
44461;DHT22;30162;53.642;10.640;2023-04-03T04:30:10;2.90;91.90
44461;DHT22;30162;53.642;10.640;2023-04-03T04:32:36;2.80;91.60
44461;DHT22;30162;53.642;10.640;2023-04-03T04:35:02;2.80;91.90
44461;DHT22;30162;53.642;10.640;2023-04-03T04:37:29;2.80;91.80
44461;DHT22;30162;53.642;10.640;2023-04-03T04:39:55;2.80;91.60
44461;DHT22;30162;53.642;10.640;2023-04-03T04:42:20;2.80;91.90
44461;DHT22;30162;53.642;10.640;2023-04-03T04:44:46;2.70;91.80
44461;DHT22;30162;53.642;10.640;2023-04-03T04:47:11;2.60;91.90
44461;DHT22;30162;53.642;10.640;2023-04-03T04:49:37;2.50;92.20
44461;DHT22;30162;53.642;10.640;2023-04-03T04:52:02;2.50;92.40
44461;DHT22;30162;53.642;10.640;2023-04-03T04:54:28;2.60;92.40
44461;DHT22;30162;53.642;10.640;2023-04-03T04:56:54;2.70;92.20
44461;DHT22;30162;53.642;10.640;2023-04-03T04:59:19;2.70;92.10
44461;DHT22;30162;53.642;10.640;2023-04-03T05:01:45;2.70;92.10
44461;DHT22;30162;53.642;10.640;2023-04-03T05:04:11;2.70;92.10
44461;DHT22;30162;53.642;10.640;2023-04-03T05:06:38;2.70;92.20
44461;DHT22;30162;53.642;10.640;2023-04-03T05:09:03;2.70;92.20
44461;DHT22;30162;53.642;10.640;2023-04-03T05:11:29;2.70;92.30
44461;DHT22;30162;53.642;10.640;2023-04-03T05:13:56;2.80;92.10
44461;DHT22;30162;53.642;10.640;2023-04-03T05:16:21;2.90;92.20
44461;DHT22;30162;53.642;10.640;2023-04-03T05:18:47;2.90;92.10
44461;DHT22;30162;53.642;10.640;2023-04-03T05:21:12;2.90;92.00
44461;DHT22;30162;53.642;10.640;2023-04-03T05:23:38;3.00;92.10
44461;DHT22;30162;53.642;10.640;2023-04-03T05:26:04;3.10;91.90
44461;DHT22;30162;53.642;10.640;2023-04-03T05:28:29;3.20;92.00
44461;DHT22;30162;53.642;10.640;2023-04-03T05:30:56;3.30;91.70
44461;DHT22;30162;53.642;10.640;2023-04-03T05:33:23;3.40;91.80
44461;DHT22;30162;53.642;10.640;2023-04-03T05:35:49;3.60;91.60
44461;DHT22;30162;53.642;10.640;2023-04-03T05:38:14;3.70;91.50
44461;DHT22;30162;53.642;10.640;2023-04-03T05:40:40;3.70;91.40
44461;DHT22;30162;53.642;10.640;2023-04-03T05:43:06;3.80;91.50
44461;DHT22;30162;53.642;10.640;2023-04-03T05:45:31;3.80;91.60
44461;DHT22;30162;53.642;10.640;2023-04-03T05:47:57;3.80;91.50
44461;DHT22;30162;53.642;10.640;2023-04-03T05:50:23;3.90;91.60
44461;DHT22;30162;53.642;10.640;2023-04-03T05:52:49;3.90;91.50
44461;DHT22;30162;53.642;10.640;2023-04-03T05:55:17;4.00;91.50
44461;DHT22;30162;53.642;10.640;2023-04-03T05:57:42;4.00;91.60
44461;DHT22;30162;53.642;10.640;2023-04-03T06:00:11;4.20;91.50
44461;DHT22;30162;53.642;10.640;2023-04-03T06:02:38;4.30;91.40
44461;DHT22;30162;53.642;10.640;2023-04-03T06:05:04;4.60;91.50
44461;DHT22;30162;53.642;10.640;2023-04-03T06:07:29;4.70;91.20
44461;DHT22;30162;53.642;10.640;2023-04-03T06:09:56;4.70;91.00
44461;DHT22;30162;53.642;10.640;2023-04-03T06:12:23;4.80;91.00
44461;DHT22;30162;53.642;10.640;2023-04-03T06:14:48;4.80;90.80
44461;DHT22;30162;53.642;10.640;2023-04-03T06:17:15;4.90;91.00
44461;DHT22;30162;53.642;10.640;2023-04-03T06:19:41;5.00;91.10
44461;DHT22;30162;53.642;10.640;2023-04-03T06:22:07;5.10;90.70
44461;DHT22;30162;53.642;10.640;2023-04-03T06:24:33;5.20;90.80
44461;DHT22;30162;53.642;10.640;2023-04-03T06:26:58;5.20;90.80
44461;DHT22;30162;53.642;10.640;2023-04-03T06:29:24;5.40;90.90
44461;DHT22;30162;53.642;10.640;2023-04-03T06:31:50;5.50;90.50
44461;DHT22;30162;53.642;10.640;2023-04-03T06:34:16;5.60;90.60
44461;DHT22;30162;53.642;10.640;2023-04-03T06:36:43;5.70;90.50
44461;DHT22;30162;53.642;10.640;2023-04-03T06:39:15;6.00;90.70
44461;DHT22;30162;53.642;10.640;2023-04-03T06:41:41;6.20;90.40
44461;DHT22;30162;53.642;10.640;2023-04-03T06:44:07;6.30;90.30
44461;DHT22;30162;53.642;10.640;2023-04-03T06:46:37;6.40;90.00
44461;DHT22;30162;53.642;10.640;2023-04-03T06:49:03;6.50;90.00
44461;DHT22;30162;53.642;10.640;2023-04-03T06:51:30;6.70;89.50
44461;DHT22;30162;53.642;10.640;2023-04-03T06:53:58;6.90;89.30
44461;DHT22;30162;53.642;10.640;2023-04-03T06:56:24;7.30;89.00
44461;DHT22;30162;53.642;10.640;2023-04-03T06:58:51;8.00;88.70
44461;DHT22;30162;53.642;10.640;2023-04-03T07:03:47;9.40;81.50
44461;DHT22;30162;53.642;10.640;2023-04-03T07:06:14;10.00;81.50
44461;DHT22;30162;53.642;10.640;2023-04-03T07:08:41;10.60;78.40
44461;DHT22;30162;53.642;10.640;2023-04-03T07:11:07;10.60;77.90
44461;DHT22;30162;53.642;10.640;2023-04-03T07:13:33;10.90;76.00
44461;DHT22;30162;53.642;10.640;2023-04-03T07:15:59;11.30;75.20
44461;DHT22;30162;53.642;10.640;2023-04-03T07:18:25;11.60;73.90
44461;DHT22;30162;53.642;10.640;2023-04-03T07:20:51;11.80;72.20
44461;DHT22;30162;53.642;10.640;2023-04-03T07:23:16;11.90;72.00
44461;DHT22;30162;53.642;10.640;2023-04-03T07:25:47;12.00;72.70
44461;DHT22;30162;53.642;10.640;2023-04-03T07:28:13;12.00;70.10
44461;DHT22;30162;53.642;10.640;2023-04-03T07:30:50;12.10;70.70
44461;DHT22;30162;53.642;10.640;2023-04-03T07:33:18;11.50;67.60
44461;DHT22;30162;53.642;10.640;2023-04-03T07:35:44;11.00;72.10
44461;DHT22;30162;53.642;10.640;2023-04-03T07:38:10;11.50;70.30
44461;DHT22;30162;53.642;10.640;2023-04-03T07:40:37;11.70;68.60
44461;DHT22;30162;53.642;10.640;2023-04-03T07:43:03;12.10;68.70
44461;DHT22;30162;53.642;10.640;2023-04-03T07:45:29;12.60;67.80
44461;DHT22;30162;53.642;10.640;2023-04-03T07:47:54;12.90;65.30
44461;DHT22;30162;53.642;10.640;2023-04-03T07:50:20;12.90;64.60
44461;DHT22;30162;53.642;10.640;2023-04-03T07:52:46;12.70;64.00
44461;DHT22;30162;53.642;10.640;2023-04-03T07:55:12;12.70;64.90
44461;DHT22;30162;53.642;10.640;2023-04-03T07:57:37;12.90;64.40
44461;DHT22;30162;53.642;10.640;2023-04-03T08:00:04;13.10;64.00
44461;DHT22;30162;53.642;10.640;2023-04-03T08:02:30;13.10;65.30
44461;DHT22;30162;53.642;10.640;2023-04-03T08:04:57;13.40;63.30
44461;DHT22;30162;53.642;10.640;2023-04-03T08:07:23;13.40;61.10
44461;DHT22;30162;53.642;10.640;2023-04-03T08:09:49;13.50;61.80
44461;DHT22;30162;53.642;10.640;2023-04-03T08:12:14;13.40;61.70
44461;DHT22;30162;53.642;10.640;2023-04-03T08:14:40;13.40;62.40
44461;DHT22;30162;53.642;10.640;2023-04-03T08:17:06;13.50;63.60
44461;DHT22;30162;53.642;10.640;2023-04-03T08:19:34;13.90;63.30
44461;DHT22;30162;53.642;10.640;2023-04-03T08:22:00;14.00;60.90
44461;DHT22;30162;53.642;10.640;2023-04-03T08:24:28;14.00;61.80
44461;DHT22;30162;53.642;10.640;2023-04-03T08:26:54;13.90;61.80
44461;DHT22;30162;53.642;10.640;2023-04-03T08:29:20;13.50;60.20
44461;DHT22;30162;53.642;10.640;2023-04-03T08:31:46;13.30;59.50
44461;DHT22;30162;53.642;10.640;2023-04-03T08:34:12;13.30;59.00
44461;DHT22;30162;53.642;10.640;2023-04-03T08:36:38;12.70;59.10
44461;DHT22;30162;53.642;10.640;2023-04-03T08:39:04;12.50;59.50
44461;DHT22;30162;53.642;10.640;2023-04-03T08:41:43;12.60;59.80
44461;DHT22;30162;53.642;10.640;2023-04-03T08:49:48;12.60;60.70
44461;DHT22;30162;53.642;10.640;2023-04-03T08:54:59;12.50;62.00
44461;DHT22;30162;53.642;10.640;2023-04-03T08:57:49;12.90;61.60
44461;DHT22;30162;53.642;10.640;2023-04-03T09:00:20;12.90;59.80
44461;DHT22;30162;53.642;10.640;2023-04-03T09:02:50;13.00;61.70
44461;DHT22;30162;53.642;10.640;2023-04-03T09:08:30;12.70;59.70
44461;DHT22;30162;53.642;10.640;2023-04-03T09:11:09;13.10;60.90
44461;DHT22;30162;53.642;10.640;2023-04-03T09:19:19;14.30;59.40
44461;DHT22;30162;53.642;10.640;2023-04-03T09:21:47;14.70;59.50
44461;DHT22;30162;53.642;10.640;2023-04-03T09:24:15;14.90;58.80
44461;DHT22;30162;53.642;10.640;2023-04-03T09:27:01;14.90;57.60
44461;DHT22;30162;53.642;10.640;2023-04-03T09:29:28;15.00;57.30
44461;DHT22;30162;53.642;10.640;2023-04-03T09:32:02;14.90;55.70
44461;DHT22;30162;53.642;10.640;2023-04-03T09:34:36;14.90;56.50
44461;DHT22;30162;53.642;10.640;2023-04-03T09:37:03;14.80;57.60
44461;DHT22;30162;53.642;10.640;2023-04-03T09:39:32;15.10;56.30
44461;DHT22;30162;53.642;10.640;2023-04-03T09:42:03;15.30;57.80
44461;DHT22;30162;53.642;10.640;2023-04-03T09:44:35;15.40;55.80
44461;DHT22;30162;53.642;10.640;2023-04-03T09:47:27;15.10;56.40
44461;DHT22;30162;53.642;10.640;2023-04-03T09:52:48;15.00;57.90
44461;DHT22;30162;53.642;10.640;2023-04-03T09:55:15;15.50;56.80
44461;DHT22;30162;53.642;10.640;2023-04-03T09:57:41;15.80;55.90
44461;DHT22;30162;53.642;10.640;2023-04-03T10:00:20;15.90;56.20
44461;DHT22;30162;53.642;10.640;2023-04-03T10:02:50;16.00;55.50
44461;DHT22;30162;53.642;10.640;2023-04-03T10:05:37;15.70;53.80
44461;DHT22;30162;53.642;10.640;2023-04-03T10:10:33;14.60;55.70
44461;DHT22;30162;53.642;10.640;2023-04-03T10:13:17;14.30;55.10
44461;DHT22;30162;53.642;10.640;2023-04-03T10:16:01;13.80;57.00
44461;DHT22;30162;53.642;10.640;2023-04-03T10:18:44;14.40;57.10
44461;DHT22;30162;53.642;10.640;2023-04-03T10:21:44;14.90;57.60
44461;DHT22;30162;53.642;10.640;2023-04-03T10:24:15;15.10;54.90
44461;DHT22;30162;53.642;10.640;2023-04-03T10:27:07;15.10;56.30
44461;DHT22;30162;53.642;10.640;2023-04-03T10:32:31;13.70;56.50
44461;DHT22;30162;53.642;10.640;2023-04-03T10:35:42;13.50;57.60
44461;DHT22;30162;53.642;10.640;2023-04-03T10:41:12;13.90;58.20
44461;DHT22;30162;53.642;10.640;2023-04-03T10:46:36;12.90;58.50
44461;DHT22;30162;53.642;10.640;2023-04-03T10:51:41;12.60;58.60
44461;DHT22;30162;53.642;10.640;2023-04-03T10:54:31;12.60;58.20
44461;DHT22;30162;53.642;10.640;2023-04-03T10:57:03;12.20;57.70
44461;DHT22;30162;53.642;10.640;2023-04-03T10:59:33;12.00;56.70
44461;DHT22;30162;53.642;10.640;2023-04-03T11:02:06;11.70;57.70
44461;DHT22;30162;53.642;10.640;2023-04-03T11:04:35;11.80;59.20
44461;DHT22;30162;53.642;10.640;2023-04-03T11:07:13;12.40;59.60
44461;DHT22;30162;53.642;10.640;2023-04-03T11:09:42;12.70;58.20
44461;DHT22;30162;53.642;10.640;2023-04-03T11:14:40;13.30;56.20
44461;DHT22;30162;53.642;10.640;2023-04-03T11:20:13;13.60;55.50
44461;DHT22;30162;53.642;10.640;2023-04-03T11:22:47;14.00;56.20
44461;DHT22;30162;53.642;10.640;2023-04-03T11:25:19;14.70;54.50
44461;DHT22;30162;53.642;10.640;2023-04-03T11:28:03;14.80;52.60
44461;DHT22;30162;53.642;10.640;2023-04-03T11:33:21;14.80;52.50
44461;DHT22;30162;53.642;10.640;2023-04-03T11:35:53;14.50;52.70
44461;DHT22;30162;53.642;10.640;2023-04-03T11:38:43;14.10;52.90
44461;DHT22;30162;53.642;10.640;2023-04-03T11:41:12;13.90;51.60
44461;DHT22;30162;53.642;10.640;2023-04-03T11:44:01;13.40;53.60
44461;DHT22;30162;53.642;10.640;2023-04-03T11:46:50;13.50;51.40
44461;DHT22;30162;53.642;10.640;2023-04-03T12:13:39;13.80;53.70
44461;DHT22;30162;53.642;10.640;2023-04-03T12:16:07;13.50;51.20
44461;DHT22;30162;53.642;10.640;2023-04-03T12:21:22;13.30;54.80
44461;DHT22;30162;53.642;10.640;2023-04-03T12:35:16;14.10;52.60
44461;DHT22;30162;53.642;10.640;2023-04-03T12:37:59;13.80;53.00
44461;DHT22;30162;53.642;10.640;2023-04-03T12:48:48;12.00;54.30
44461;DHT22;30162;53.642;10.640;2023-04-03T12:51:16;11.80;54.50
44461;DHT22;30162;53.642;10.640;2023-04-03T12:53:44;12.00;55.70
44461;DHT22;30162;53.642;10.640;2023-04-03T12:56:26;12.40;57.40
44461;DHT22;30162;53.642;10.640;2023-04-03T12:58:54;12.00;54.60
44461;DHT22;30162;53.642;10.640;2023-04-03T13:01:24;11.60;56.20
44461;DHT22;30162;53.642;10.640;2023-04-03T13:03:55;11.70;57.80
44461;DHT22;30162;53.642;10.640;2023-04-03T13:08:56;12.10;57.00
44461;DHT22;30162;53.642;10.640;2023-04-03T13:11:24;11.90;57.10
44461;DHT22;30162;53.642;10.640;2023-04-03T13:13:59;11.80;57.70
44461;DHT22;30162;53.642;10.640;2023-04-03T13:16:25;11.80;57.10
44461;DHT22;30162;53.642;10.640;2023-04-03T13:18:53;12.10;56.40
44461;DHT22;30162;53.642;10.640;2023-04-03T13:21:22;12.10;58.30
44461;DHT22;30162;53.642;10.640;2023-04-03T13:23:50;12.50;58.40
44461;DHT22;30162;53.642;10.640;2023-04-03T13:26:18;13.20;56.30
44461;DHT22;30162;53.642;10.640;2023-04-03T13:28:46;13.60;55.00
44461;DHT22;30162;53.642;10.640;2023-04-03T13:36:29;13.20;55.90
44461;DHT22;30162;53.642;10.640;2023-04-03T13:41:40;12.70;52.80
44461;DHT22;30162;53.642;10.640;2023-04-03T13:46:59;12.10;55.60
44461;DHT22;30162;53.642;10.640;2023-04-03T13:49:31;12.30;55.20
44461;DHT22;30162;53.642;10.640;2023-04-03T13:51:58;12.70;55.70
44461;DHT22;30162;53.642;10.640;2023-04-03T13:54:33;13.20;54.80
44461;DHT22;30162;53.642;10.640;2023-04-03T13:57:00;13.00;54.00
44461;DHT22;30162;53.642;10.640;2023-04-03T13:59:34;12.50;54.30
44461;DHT22;30162;53.642;10.640;2023-04-03T14:07:02;12.10;55.40
44461;DHT22;30162;53.642;10.640;2023-04-03T14:09:27;11.80;55.10
44461;DHT22;30162;53.642;10.640;2023-04-03T14:11:55;12.00;56.50
44461;DHT22;30162;53.642;10.640;2023-04-03T14:14:31;12.00;56.90
44461;DHT22;30162;53.642;10.640;2023-04-03T14:17:01;12.30;56.20
44461;DHT22;30162;53.642;10.640;2023-04-03T14:19:32;12.10;55.80
44461;DHT22;30162;53.642;10.640;2023-04-03T14:22:00;12.20;54.80
44461;DHT22;30162;53.642;10.640;2023-04-03T14:24:25;12.20;55.60
44461;DHT22;30162;53.642;10.640;2023-04-03T14:26:54;12.20;55.40
44461;DHT22;30162;53.642;10.640;2023-04-03T14:29:21;12.30;56.00
44461;DHT22;30162;53.642;10.640;2023-04-03T14:31:48;12.00;56.30
44461;DHT22;30162;53.642;10.640;2023-04-03T14:34:15;11.70;55.90
44461;DHT22;30162;53.642;10.640;2023-04-03T14:36:43;11.80;56.30
44461;DHT22;30162;53.642;10.640;2023-04-03T14:39:16;12.00;55.10
44461;DHT22;30162;53.642;10.640;2023-04-03T14:41:42;11.90;55.30
44461;DHT22;30162;53.642;10.640;2023-04-03T14:44:08;11.40;54.30
44461;DHT22;30162;53.642;10.640;2023-04-03T14:46:39;11.30;54.50
44461;DHT22;30162;53.642;10.640;2023-04-03T14:49:16;11.40;55.70
44461;DHT22;30162;53.642;10.640;2023-04-03T14:51:43;11.50;56.70
44461;DHT22;30162;53.642;10.640;2023-04-03T14:54:17;11.70;57.40
44461;DHT22;30162;53.642;10.640;2023-04-03T14:56:42;11.80;57.50
44461;DHT22;30162;53.642;10.640;2023-04-03T14:59:11;11.40;56.30
44461;DHT22;30162;53.642;10.640;2023-04-03T15:01:37;10.60;57.60
44461;DHT22;30162;53.642;10.640;2023-04-03T15:04:14;10.90;59.00
44461;DHT22;30162;53.642;10.640;2023-04-03T15:06:40;11.00;59.30
44461;DHT22;30162;53.642;10.640;2023-04-03T15:09:18;10.80;59.30
44461;DHT22;30162;53.642;10.640;2023-04-03T15:11:44;10.90;60.00
44461;DHT22;30162;53.642;10.640;2023-04-03T15:14:10;11.10;59.40
44461;DHT22;30162;53.642;10.640;2023-04-03T15:16:36;10.50;58.60
44461;DHT22;30162;53.642;10.640;2023-04-03T15:19:01;10.50;59.20
44461;DHT22;30162;53.642;10.640;2023-04-03T15:21:27;10.50;59.60
44461;DHT22;30162;53.642;10.640;2023-04-03T15:23:53;10.50;59.30
44461;DHT22;30162;53.642;10.640;2023-04-03T15:26:18;10.60;59.70
44461;DHT22;30162;53.642;10.640;2023-04-03T15:28:44;10.60;58.80
44461;DHT22;30162;53.642;10.640;2023-04-03T15:31:10;10.70;59.10
44461;DHT22;30162;53.642;10.640;2023-04-03T15:33:36;10.40;59.50
44461;DHT22;30162;53.642;10.640;2023-04-03T15:36:02;10.30;59.30
44461;DHT22;30162;53.642;10.640;2023-04-03T15:38:28;10.40;59.80
44461;DHT22;30162;53.642;10.640;2023-04-03T15:40:54;10.50;59.70
44461;DHT22;30162;53.642;10.640;2023-04-03T15:43:20;10.60;58.50
44461;DHT22;30162;53.642;10.640;2023-04-03T15:45:46;10.50;58.90
44461;DHT22;30162;53.642;10.640;2023-04-03T15:48:12;10.10;59.90
44461;DHT22;30162;53.642;10.640;2023-04-03T15:50:38;10.30;60.50
44461;DHT22;30162;53.642;10.640;2023-04-03T15:53:04;10.20;60.30
44461;DHT22;30162;53.642;10.640;2023-04-03T15:55:32;10.20;60.20
44461;DHT22;30162;53.642;10.640;2023-04-03T15:57:58;10.30;59.10
44461;DHT22;30162;53.642;10.640;2023-04-03T16:00:25;10.40;59.20
44461;DHT22;30162;53.642;10.640;2023-04-03T16:02:53;10.30;59.50
44461;DHT22;30162;53.642;10.640;2023-04-03T16:05:20;10.30;59.30
44461;DHT22;30162;53.642;10.640;2023-04-03T16:07:46;10.20;59.60
44461;DHT22;30162;53.642;10.640;2023-04-03T16:10:14;10.10;59.50
44461;DHT22;30162;53.642;10.640;2023-04-03T16:12:40;10.10;60.40
44461;DHT22;30162;53.642;10.640;2023-04-03T16:15:06;10.00;60.30
44461;DHT22;30162;53.642;10.640;2023-04-03T16:17:33;9.90;60.20
44461;DHT22;30162;53.642;10.640;2023-04-03T16:19:59;10.00;61.00
44461;DHT22;30162;53.642;10.640;2023-04-03T16:22:26;10.00;61.20
44461;DHT22;30162;53.642;10.640;2023-04-03T16:24:53;9.60;60.00
44461;DHT22;30162;53.642;10.640;2023-04-03T16:27:19;9.60;60.10
44461;DHT22;30162;53.642;10.640;2023-04-03T16:29:45;9.60;60.10
44461;DHT22;30162;53.642;10.640;2023-04-03T16:32:11;9.60;60.30
44461;DHT22;30162;53.642;10.640;2023-04-03T16:34:38;9.50;61.30
44461;DHT22;30162;53.642;10.640;2023-04-03T16:37:06;9.30;60.30
44461;DHT22;30162;53.642;10.640;2023-04-03T16:39:34;9.20;60.90
44461;DHT22;30162;53.642;10.640;2023-04-03T16:41:59;9.10;61.80
44461;DHT22;30162;53.642;10.640;2023-04-03T16:44:25;9.10;61.60
44461;DHT22;30162;53.642;10.640;2023-04-03T16:46:51;9.20;62.20
44461;DHT22;30162;53.642;10.640;2023-04-03T16:49:17;9.10;61.90
44461;DHT22;30162;53.642;10.640;2023-04-03T16:51:42;9.20;62.30
44461;DHT22;30162;53.642;10.640;2023-04-03T16:54:08;9.30;62.30
44461;DHT22;30162;53.642;10.640;2023-04-03T16:56:36;9.30;61.30
44461;DHT22;30162;53.642;10.640;2023-04-03T16:59:01;9.50;61.40
44461;DHT22;30162;53.642;10.640;2023-04-03T17:01:27;9.40;60.10
44461;DHT22;30162;53.642;10.640;2023-04-03T17:03:52;9.40;60.50
44461;DHT22;30162;53.642;10.640;2023-04-03T17:06:20;9.20;59.90
44461;DHT22;30162;53.642;10.640;2023-04-03T17:08:47;9.10;60.10
44461;DHT22;30162;53.642;10.640;2023-04-03T17:11:14;9.00;60.70
44461;DHT22;30162;53.642;10.640;2023-04-03T17:13:40;9.00;61.40
44461;DHT22;30162;53.642;10.640;2023-04-03T17:16:08;8.80;61.30
44461;DHT22;30162;53.642;10.640;2023-04-03T17:18:35;8.70;61.50
44461;DHT22;30162;53.642;10.640;2023-04-03T17:21:02;8.80;61.90
44461;DHT22;30162;53.642;10.640;2023-04-03T17:23:28;8.90;61.40
44461;DHT22;30162;53.642;10.640;2023-04-03T17:25:54;8.90;62.00